createdAt,value
2017-12-02T00:00:08.322Z,64.3
2017-12-02T00:00:37.577Z,64.6
2017-12-02T00:00:49.638Z,64.4
2017-12-02T00:01:02.417Z,64.4
2017-12-02T00:01:15.268Z,64.5
2017-12-02T00:01:28.426Z,64.3
2017-12-02T00:01:45.223Z,64.5
2017-12-02T00:02:14.856Z,64.4
2017-12-02T00:02:31.928Z,64.3
2017-12-02T00:02:47.982Z,64.2
2017-12-02T00:03:00.175Z,63.7
2017-12-02T00:03:17.137Z,63.9
2017-12-02T00:03:33.318Z,64.3
2017-12-02T00:03:49.392Z,64.4
2017-12-02T00:04:05.598Z,64.4
2017-12-02T00:04:21.728Z,64.5
2017-12-02T00:04:37.955Z,64.6
2017-12-02T00:04:54.092Z,64.6
2017-12-02T00:05:10.188Z,64.6
2017-12-02T00:05:26.362Z,64.6
2017-12-02T00:05:42.550Z,64.7
2017-12-02T00:05:58.703Z,64.6
2017-12-02T00:06:14.832Z,64.4
2017-12-02T00:06:30.980Z,64.5
2017-12-02T00:06:47.116Z,64.5
2017-12-02T00:06:59.303Z,64.6
2017-12-02T00:07:14.642Z,64.2
2017-12-02T00:07:30.818Z,64.6
2017-12-02T00:07:46.947Z,64.4
2017-12-02T00:08:03.221Z,64.2
2017-12-02T00:08:15.268Z,64.3
2017-12-02T00:08:30.590Z,64.2
2017-12-02T00:08:46.767Z,64.2
2017-12-02T00:09:02.995Z,64.3
2017-12-02T00:09:19.056Z,64.1
2017-12-02T00:09:35.312Z,64.5
2017-12-02T00:09:52.404Z,64.1
2017-12-02T00:10:09.171Z,64.1
2017-12-02T00:10:25.247Z,64.3
2017-12-02T00:10:37.445Z,64.4
2017-12-02T00:10:54.454Z,64.4
2017-12-02T00:11:10.545Z,64.3
2017-12-02T00:11:26.741Z,64.4
2017-12-02T00:11:42.839Z,64.4
2017-12-02T00:11:59.052Z,64
2017-12-02T00:12:15.135Z,63.9
2017-12-02T00:12:31.337Z,64.1
2017-12-02T00:12:47.438Z,64.3
2017-12-02T00:13:03.587Z,64.4
2017-12-02T00:13:19.815Z,64.5
2017-12-02T00:13:35.996Z,64
2017-12-02T00:13:52.115Z,64.2
2017-12-02T00:14:08.265Z,63.4
2017-12-02T00:14:24.361Z,63.7
2017-12-02T00:14:40.609Z,63.4
2017-12-02T00:14:56.712Z,64
2017-12-02T00:15:12.875Z,64.2
2017-12-02T00:15:29.043Z,64.1
2017-12-02T00:15:45.198Z,64.5
2017-12-02T00:16:01.360Z,64.5
2017-12-02T00:16:17.492Z,64
2017-12-02T00:16:33.724Z,64.1
2017-12-02T00:16:49.823Z,64
2017-12-02T00:17:05.871Z,64.2
2017-12-02T00:17:22.066Z,64.3
2017-12-02T00:17:38.219Z,64.4
2017-12-02T00:20:57.590Z,64.2
2017-12-02T00:21:10.568Z,64.6
2017-12-02T00:21:23.504Z,64.6
2017-12-02T00:21:40.431Z,64.4
2017-12-02T00:21:52.618Z,64.6
2017-12-02T00:22:09.586Z,64.4
2017-12-02T00:22:21.727Z,64.1
2017-12-02T00:22:34.665Z,64.3
2017-12-02T00:23:03.195Z,64.6
2017-12-02T00:23:15.050Z,64.6
2017-12-02T00:23:28.001Z,64.7
2017-12-02T00:23:40.923Z,64.7
2017-12-02T00:23:53.990Z,64.6
2017-12-02T00:24:10.111Z,64.6
2017-12-02T00:24:23.079Z,64.3
2017-12-02T00:24:35.950Z,64.7
2017-12-02T00:24:48.896Z,64.6
2017-12-02T00:25:06.430Z,64.3
2017-12-02T00:25:19.728Z,64.4
2017-12-02T00:25:32.544Z,64.6
2017-12-02T00:25:51.438Z,64.4
2017-12-02T00:26:03.211Z,64.4
2017-12-02T00:26:20.489Z,64.6
2017-12-02T00:26:36.287Z,64.5
2017-12-02T00:26:52.454Z,64.4
2017-12-02T00:27:08.647Z,64.6
2017-12-02T00:27:24.756Z,64.4
2017-12-02T00:27:40.940Z,64.6
2017-12-02T00:27:57.153Z,64.7
2017-12-02T00:28:13.216Z,64.2
2017-12-02T00:28:29.385Z,64.6
2017-12-02T00:28:45.581Z,64.8
2017-12-02T00:29:01.749Z,64.6
2017-12-02T00:29:17.778Z,64.5
2017-12-02T00:29:30.009Z,64.3
2017-12-02T00:29:46.917Z,64.8
2017-12-02T00:30:03.088Z,64.9
2017-12-02T00:30:19.268Z,64.6
2017-12-02T00:30:35.451Z,65
2017-12-02T00:30:51.600Z,65
2017-12-02T00:31:07.675Z,64.8
2017-12-02T00:31:20.143Z,65
2017-12-02T00:31:36.747Z,64.6
2017-12-02T00:31:54.552Z,65
2017-12-02T00:32:10.729Z,64.9
2017-12-02T00:32:26.944Z,64.4
2017-12-02T00:32:39.015Z,64.6
2017-12-02T00:32:55.943Z,64.5
2017-12-02T00:33:08.129Z,64.7
2017-12-02T00:33:21.086Z,64.8
2017-12-02T00:33:38.055Z,65.1
2017-12-02T00:33:54.145Z,65.1
2017-12-02T00:34:10.337Z,64.4
2017-12-02T00:34:22.517Z,64.9
2017-12-02T00:34:35.499Z,64.8
2017-12-02T00:34:52.377Z,64.8
2017-12-02T00:35:08.555Z,64.8
2017-12-02T00:35:24.729Z,64.8
2017-12-02T00:35:40.888Z,64.8
2017-12-02T00:35:57.011Z,64.8
2017-12-02T00:36:13.200Z,65.2
2017-12-02T00:36:39.243Z,65.3
2017-12-02T00:36:55.040Z,64.9
2017-12-02T00:37:21.120Z,64.9
2017-12-02T00:37:36.979Z,65.1
2017-12-02T00:37:49.101Z,65.2
2017-12-02T00:38:04.452Z,65.4
2017-12-02T00:38:20.646Z,65.3
2017-12-02T00:38:36.782Z,65.5
2017-12-02T00:38:56.140Z,65.3
2017-12-02T00:39:12.282Z,65.4
2017-12-02T00:39:28.453Z,65.3
2017-12-02T00:39:44.616Z,65.4
2017-12-02T00:40:00.718Z,65.4
2017-12-02T00:40:16.897Z,65.3
2017-12-02T00:40:29.008Z,65.5
2017-12-02T00:40:40.392Z,65.2
2017-12-02T00:40:52.028Z,65.2
2017-12-02T00:41:08.664Z,65.4
2017-12-02T00:41:24.873Z,65.3
2017-12-02T00:41:41.044Z,65.2
2017-12-02T00:41:53.164Z,65.3
2017-12-02T00:42:10.086Z,65.6
2017-12-02T00:42:26.307Z,65.5
2017-12-02T00:42:42.390Z,65.5
2017-12-02T00:42:58.598Z,65.3
2017-12-02T00:43:14.730Z,65.5
2017-12-02T00:43:26.902Z,65.4
2017-12-02T00:43:43.961Z,65.3
2017-12-02T00:44:00.020Z,65.5
2017-12-02T00:44:16.139Z,65.5
2017-12-02T00:44:32.294Z,65.6
2017-12-02T00:54:37.483Z,64.8
2017-12-02T00:54:49.589Z,64.8
2017-12-02T00:55:02.673Z,65.2
2017-12-02T00:55:15.514Z,65.2
2017-12-02T00:55:28.424Z,65.2
2017-12-02T00:55:45.398Z,65.4
2017-12-02T00:56:01.546Z,65.5
2017-12-02T00:56:26.333Z,65.3
2017-12-02T00:56:37.851Z,65.4
2017-12-02T00:57:16.513Z,65.1
2017-12-02T00:57:32.864Z,65.1
2017-12-02T00:57:49.662Z,65.6
2017-12-02T00:58:01.772Z,65.5
2017-12-02T00:58:17.132Z,65.7
2017-12-02T00:58:36.542Z,65.7
2017-12-02T00:58:48.627Z,65.6
2017-12-02T00:59:03.971Z,65.5
2017-12-02T00:59:16.154Z,65.4
2017-12-02T00:59:31.514Z,65.5
2017-12-02T00:59:43.676Z,65.2
2017-12-02T00:59:59.064Z,65.5
2017-12-02T01:00:11.195Z,65.2
2017-12-02T01:00:28.130Z,65.5
2017-12-02T01:00:44.323Z,65.5
2017-12-02T01:00:56.460Z,65
2017-12-02T01:01:09.412Z,65.5
2017-12-02T01:01:22.366Z,65.3
2017-12-02T01:01:33.649Z,65.5
2017-12-02T01:01:45.059Z,65.5
2017-12-02T01:02:01.995Z,65.3
2017-12-02T01:02:14.128Z,65.3
2017-12-02T01:02:27.085Z,65.4
2017-12-02T01:02:38.450Z,65.3
2017-12-02T01:02:51.463Z,65.5
2017-12-02T01:03:04.355Z,65.4
2017-12-02T01:03:17.272Z,65.6
2017-12-02T01:03:28.675Z,65.5
2017-12-02T01:03:45.681Z,65.5
2017-12-02T01:04:01.826Z,65.4
2017-12-02T01:04:28.419Z,65.5
2017-12-02T01:04:41.304Z,65.2
2017-12-02T01:04:58.238Z,65.5
2017-12-02T01:05:14.376Z,65.1
2017-12-02T01:05:30.541Z,65.4
2017-12-02T01:05:46.715Z,65.4
2017-12-02T01:06:02.947Z,65.4
2017-12-02T01:06:18.971Z,65.3
2017-12-02T01:06:31.257Z,65.5
2017-12-02T01:06:48.111Z,65.5
2017-12-02T01:07:04.253Z,65.2
2017-12-02T01:07:16.429Z,65.3
2017-12-02T01:07:39.296Z,65.3
2017-12-02T01:07:55.896Z,65.4
2017-12-02T01:08:12.039Z,65.3
2017-12-02T01:08:28.197Z,65.4
2017-12-02T01:08:40.381Z,65.2
2017-12-02T01:08:55.339Z,65.3
2017-12-02T01:09:12.010Z,65.3
2017-12-02T01:09:24.072Z,65.3
2017-12-02T01:09:37.102Z,65.3
2017-12-02T01:09:53.964Z,65.2
2017-12-02T01:10:06.252Z,65.4
2017-12-02T01:10:20.099Z,65.4
2017-12-02T01:10:32.033Z,65.1
2017-12-02T01:10:59.419Z,65.3
2017-12-02T01:11:16.555Z,65.3
2017-12-02T01:11:32.474Z,65.5
2017-12-02T01:11:44.604Z,65.5
2017-12-02T01:11:57.664Z,65.4
2017-12-02T01:12:10.542Z,65.2
2017-12-02T01:12:23.466Z,64.8
2017-12-02T01:12:36.494Z,64.7
2017-12-02T01:12:53.438Z,64.6
2017-12-02T01:13:09.572Z,65
2017-12-02T01:13:21.736Z,64.9
2017-12-02T01:13:34.685Z,65
2017-12-02T01:13:47.590Z,64.7
2017-12-02T01:14:00.564Z,64.8
2017-12-02T01:14:13.526Z,64.6
2017-12-02T01:14:30.536Z,64.6
2017-12-02T01:14:46.632Z,64.7
2017-12-02T01:15:14.213Z,64.8
2017-12-02T01:15:26.042Z,64.8
2017-12-02T01:15:41.454Z,64.9
2017-12-02T01:15:53.575Z,64.8
2017-12-02T01:16:04.988Z,64.7
2017-12-02T01:16:21.925Z,65.1
2017-12-02T01:16:34.092Z,65.1
2017-12-02T01:16:52.003Z,65
2017-12-02T01:17:04.766Z,64.8
2017-12-02T01:17:20.124Z,64.6
2017-12-02T01:17:36.287Z,64.8
2017-12-02T01:17:52.417Z,64.8
2017-12-02T01:18:14.555Z,65
2017-12-02T01:18:29.911Z,64.6
2017-12-02T01:18:43.046Z,65
2017-12-02T01:18:58.171Z,64.8
2017-12-02T01:19:10.823Z,64.6
2017-12-02T01:19:23.803Z,64.6
2017-12-02T01:19:36.772Z,64.9
2017-12-02T01:19:49.675Z,65
2017-12-02T01:20:02.661Z,65.1
2017-12-02T01:20:15.622Z,64.8
2017-12-02T01:20:32.532Z,64.8
2017-12-02T01:20:44.671Z,65.1
2017-12-02T01:20:57.619Z,65.4
2017-12-02T01:21:10.592Z,65.4
2017-12-02T01:21:23.620Z,65.2
2017-12-02T01:21:36.557Z,65.4
2017-12-02T01:21:49.478Z,65.4
2017-12-02T01:22:06.399Z,65.5
2017-12-02T01:22:18.564Z,65.4
2017-12-02T01:22:31.520Z,65.3
2017-12-02T01:22:44.476Z,65.6
2017-12-02T01:23:01.469Z,65.7
2017-12-02T01:23:14.275Z,65.7
2017-12-02T01:23:26.583Z,65.6
2017-12-02T01:23:39.562Z,65.8
2017-12-02T01:23:56.470Z,65.6
2017-12-02T01:24:08.598Z,65.6
2017-12-02T01:24:21.525Z,65.6
2017-12-02T01:24:38.467Z,65.7
2017-12-02T01:24:54.675Z,65.6
2017-12-02T01:25:06.828Z,65.9
2017-12-02T01:25:19.793Z,65.6
2017-12-02T01:25:32.702Z,66.2
2017-12-02T01:25:45.683Z,66
2017-12-02T01:25:58.678Z,65.6
2017-12-02T01:26:15.577Z,65.7
2017-12-02T01:26:27.804Z,66
2017-12-02T01:26:44.710Z,65.9
2017-12-02T01:26:56.869Z,66.2
2017-12-02T01:27:13.870Z,66.1
2017-12-02T01:27:41.099Z,65.8
2017-12-02T01:27:53.332Z,65.7
2017-12-02T01:28:06.323Z,65.7
2017-12-02T01:28:23.152Z,65.6
2017-12-02T01:28:35.334Z,65.6
2017-12-02T01:28:58.271Z,65.6
2017-12-02T01:29:11.093Z,65.9
2017-12-02T01:29:27.827Z,66
2017-12-02T01:29:39.965Z,65.7
2017-12-02T01:29:52.868Z,65.9
2017-12-02T01:30:09.867Z,65.6
2017-12-02T01:30:22.104Z,65.6
2017-12-02T01:30:34.952Z,65.9
2017-12-02T01:30:47.968Z,65.9
2017-12-02T01:31:01.116Z,65.9
2017-12-02T01:31:25.797Z,65.6
2017-12-02T01:31:38.008Z,65.6
2017-12-02T01:31:51.019Z,65.6
2017-12-02T01:32:10.361Z,65.9
2017-12-02T01:32:23.293Z,65.6
2017-12-02T01:32:36.249Z,65.7
2017-12-02T01:32:49.174Z,66.1
2017-12-02T01:33:02.091Z,65.8
2017-12-02T01:33:15.052Z,65.9
2017-12-02T01:33:27.979Z,65.9
2017-12-02T01:33:42.960Z,65.7
2017-12-02T01:33:55.528Z,65.7
2017-12-02T01:34:14.897Z,65.6
2017-12-02T01:34:31.796Z,65.6
2017-12-02T01:34:48.000Z,65.4
2017-12-02T01:35:00.095Z,65.6
2017-12-02T01:35:14.087Z,65.6
2017-12-02T01:35:29.996Z,65.5
2017-12-02T01:35:55.674Z,66
2017-12-02T01:36:11.946Z,65.7
2017-12-02T01:36:28.130Z,65.9
2017-12-02T01:36:44.225Z,65.6
2017-12-02T01:37:00.359Z,65.7
2017-12-02T01:37:12.583Z,65.6
2017-12-02T01:37:25.484Z,65.7
2017-12-02T01:37:42.443Z,65.4
2017-12-02T01:38:21.918Z,65.2
2017-12-02T01:38:33.263Z,65.2
2017-12-02T01:38:48.635Z,65.7
2017-12-02T01:39:00.852Z,65.8
2017-12-02T01:39:17.795Z,65.7
2017-12-02T01:39:33.903Z,65.6
2017-12-02T01:39:50.094Z,65.7
2017-12-02T01:40:02.267Z,65.5
2017-12-02T01:40:15.142Z,65.7
2017-12-02T01:40:26.488Z,65.9
2017-12-02T01:40:41.898Z,66
2017-12-02T01:40:58.027Z,66
2017-12-02T01:41:14.228Z,65.7
2017-12-02T01:41:26.318Z,65.6
2017-12-02T01:41:39.294Z,65.5
2017-12-02T01:41:56.228Z,65.9
2017-12-02T01:42:08.376Z,65.6
2017-12-02T01:42:23.717Z,65.3
2017-12-02T01:42:35.861Z,65.7
2017-12-02T01:42:51.190Z,65.9
2017-12-02T01:43:07.396Z,65.6
2017-12-02T01:43:23.512Z,65.9
2017-12-02T01:43:39.673Z,65.9
2017-12-02T01:43:55.856Z,65.9
2017-12-02T01:44:08.080Z,65.9
2017-12-02T01:44:20.962Z,65.8
2017-12-02T01:44:36.300Z,66.2
2017-12-02T01:44:52.435Z,65.7
2017-12-02T01:45:04.607Z,65.7
2017-12-02T01:45:21.613Z,66
2017-12-02T01:45:33.682Z,66
2017-12-02T01:45:49.126Z,65.8
2017-12-02T01:46:01.243Z,65.6
2017-12-02T01:46:14.158Z,65.6
2017-12-02T01:46:29.527Z,65.6
2017-12-02T01:46:45.682Z,65.7
2017-12-02T01:47:01.864Z,66.1
2017-12-02T01:47:13.992Z,65.6
2017-12-02T01:47:25.441Z,65.6
2017-12-02T01:47:42.306Z,65.9
2017-12-02T01:47:54.487Z,65.8
2017-12-02T01:48:09.834Z,65.6
2017-12-02T01:48:26.038Z,65.9
2017-12-02T01:48:42.148Z,65.6
2017-12-02T01:48:54.391Z,66
2017-12-02T01:49:11.296Z,65.7
2017-12-02T01:49:23.387Z,65.7
2017-12-02T01:49:40.385Z,65.7
2017-12-02T01:49:56.474Z,66
2017-12-02T01:50:12.749Z,65.7
2017-12-02T01:50:28.788Z,65.6
2017-12-02T01:50:45.009Z,65.6
2017-12-02T01:51:01.097Z,65.6
2017-12-02T01:51:17.321Z,65.6
2017-12-02T01:51:29.487Z,65.8
2017-12-02T01:51:46.385Z,65.6
2017-12-02T01:51:58.547Z,65.7
2017-12-02T01:52:15.453Z,65.6
2017-12-02T01:52:27.604Z,65.6
2017-12-02T01:52:38.992Z,65.7
2017-12-02T01:53:05.872Z,65.9
2017-12-02T01:53:21.685Z,65.6
2017-12-02T01:53:37.916Z,65.6
2017-12-02T01:53:54.041Z,65.1
2017-12-02T01:54:10.195Z,65.6
2017-12-02T01:54:26.331Z,65.2
2017-12-02T01:54:42.451Z,65.7
2017-12-02T01:54:59.128Z,65.9
2017-12-02T01:55:10.794Z,65.6
2017-12-02T01:55:27.735Z,65.2
2017-12-02T01:55:43.932Z,65.5
2017-12-02T01:55:56.038Z,65.6
2017-12-02T01:56:11.382Z,65.6
2017-12-02T01:56:27.505Z,65.3
2017-12-02T01:56:43.703Z,65.7
2017-12-02T01:56:59.828Z,65.8
2017-12-02T01:57:15.979Z,66
2017-12-02T01:57:32.123Z,65.6
2017-12-02T01:57:48.272Z,65.5
2017-12-02T01:58:00.423Z,65.5
2017-12-02T01:58:15.800Z,65.3
2017-12-02T01:58:31.999Z,65.5
2017-12-02T01:58:44.099Z,65.3
2017-12-02T01:59:01.047Z,65.5
2017-12-02T01:59:14.873Z,65.4
2017-12-02T01:59:27.771Z,65.2
2017-12-02T01:59:44.708Z,65.5
2017-12-02T01:59:56.838Z,65.4
2017-12-02T02:00:09.782Z,65.1
2017-12-02T02:00:25.171Z,65.3
2017-12-02T02:00:37.334Z,65.6
2017-12-02T02:00:52.712Z,65.5
2017-12-02T02:01:04.906Z,65.7
2017-12-02T02:01:21.788Z,65.6
2017-12-02T02:01:37.927Z,65.7
2017-12-02T02:01:54.134Z,65.6
2017-12-02T02:02:06.267Z,65.9
2017-12-02T02:02:23.235Z,65.7
2017-12-02T02:02:35.362Z,65.1
2017-12-02T02:02:52.268Z,66
2017-12-02T02:03:08.511Z,65.7
2017-12-02T02:03:24.597Z,65.9
2017-12-02T02:03:53.282Z,65.8
2017-12-02T02:04:08.917Z,65.8
2017-12-02T02:04:25.964Z,65.9
2017-12-02T02:04:42.046Z,65.9
2017-12-02T02:04:54.186Z,65.6
2017-12-02T02:05:05.572Z,66.4
2017-12-02T02:05:22.494Z,65.7
2017-12-02T02:05:34.654Z,65.7
2017-12-02T02:05:47.564Z,65.7
2017-12-02T02:06:04.596Z,65.6
2017-12-02T02:06:16.740Z,65.9
2017-12-02T02:06:28.047Z,65.7
2017-12-02T02:06:43.423Z,65.9
2017-12-02T02:06:55.583Z,65.7
2017-12-02T02:07:08.567Z,65.6
2017-12-02T02:07:21.798Z,65.7
2017-12-02T02:07:34.446Z,65.4
2017-12-02T02:07:47.359Z,65.6
2017-12-02T02:07:58.699Z,65.9
2017-12-02T02:08:15.683Z,65.9
2017-12-02T02:08:27.870Z,66
2017-12-02T02:08:39.199Z,65.9
2017-12-02T02:08:52.128Z,65.9
2017-12-02T02:09:07.517Z,65.7
2017-12-02T02:09:23.670Z,66
2017-12-02T02:09:39.797Z,65.7
2017-12-02T02:09:51.929Z,65.9
2017-12-02T02:10:04.923Z,65.7
2017-12-02T02:10:17.835Z,65.9
2017-12-02T02:10:33.201Z,65.7
2017-12-02T02:10:49.362Z,66.3
2017-12-02T02:11:12.548Z,66.1
2017-12-02T02:11:28.114Z,66.2
2017-12-02T02:11:40.298Z,66.2
2017-12-02T02:11:53.191Z,66.2
2017-12-02T02:12:06.208Z,66.4
2017-12-02T02:12:19.168Z,66.2
2017-12-02T02:12:32.031Z,66.2
2017-12-02T02:12:45.047Z,66.2
2017-12-02T02:12:58.000Z,65.9
2017-12-02T02:13:11.039Z,66
2017-12-02T02:13:23.848Z,66
2017-12-02T02:13:37.741Z,66
2017-12-02T02:13:51.818Z,66.6
2017-12-02T02:14:04.504Z,66.6
2017-12-02T02:14:17.281Z,66
2017-12-02T02:14:30.591Z,65.9
2017-12-02T02:14:45.246Z,66.2
2017-12-02T02:15:01.775Z,66.3
2017-12-02T02:15:13.958Z,66.1
2017-12-02T02:15:26.869Z,66.2
2017-12-02T02:15:41.124Z,66
2017-12-02T02:15:54.774Z,66.2
2017-12-02T02:16:11.328Z,66
2017-12-02T02:16:23.439Z,66
2017-12-02T02:16:38.898Z,66.1
2017-12-02T02:16:50.975Z,65.9
2017-12-02T02:17:02.378Z,65.9
2017-12-02T02:17:15.258Z,66.1
2017-12-02T02:17:32.275Z,66.1
2017-12-02T02:17:44.508Z,66.3
2017-12-02T02:17:57.320Z,66.1
2017-12-02T02:18:14.287Z,66
2017-12-02T02:18:26.449Z,66.2
2017-12-02T02:18:39.424Z,66.4
2017-12-02T02:18:58.901Z,65.8
2017-12-02T02:19:15.712Z,65.8
2017-12-02T02:19:31.942Z,65.9
2017-12-02T02:19:48.029Z,65.9
2017-12-02T02:20:00.256Z,65.7
2017-12-02T02:20:13.134Z,65.9
2017-12-02T02:20:26.101Z,65.9
2017-12-02T02:20:39.085Z,66
2017-12-02T02:20:55.990Z,66
2017-12-02T02:21:08.246Z,65.5
2017-12-02T02:21:33.621Z,65.9
2017-12-02T02:22:13.408Z,66
2017-12-02T02:22:25.592Z,65.6
2017-12-02T02:22:38.508Z,66.1
2017-12-02T02:22:53.825Z,66.2
2017-12-02T02:23:10.042Z,65.7
2017-12-02T02:23:22.119Z,65.9
2017-12-02T02:23:37.446Z,65.8
2017-12-02T02:23:49.630Z,66
2017-12-02T02:24:04.953Z,65.7
2017-12-02T02:24:17.129Z,65.9
2017-12-02T02:24:28.514Z,65.8
2017-12-02T02:24:39.849Z,65.7
2017-12-02T02:24:55.211Z,66
2017-12-02T02:25:07.332Z,65.6
2017-12-02T02:25:18.762Z,65.7
2017-12-02T02:25:34.059Z,65.6
2017-12-02T02:25:46.185Z,66
2017-12-02T02:26:01.545Z,65.6
2017-12-02T02:26:17.724Z,65.6
2017-12-02T02:26:30.849Z,65.6
2017-12-02T02:26:42.815Z,65.7
2017-12-02T02:26:58.208Z,65.9
2017-12-02T02:27:10.356Z,66
2017-12-02T02:27:26.696Z,65.6
2017-12-02T02:27:43.538Z,65.6
2017-12-02T02:27:59.631Z,66
2017-12-02T02:28:11.749Z,65.8
2017-12-02T02:28:23.112Z,65.7
2017-12-02T02:28:36.128Z,65.9
2017-12-02T02:28:52.998Z,65.6
2017-12-02T02:29:09.208Z,66.1
2017-12-02T02:29:25.332Z,65.7
2017-12-02T02:29:41.561Z,65.7
2017-12-02T02:29:53.660Z,65.7
2017-12-02T02:30:04.986Z,65.9
2017-12-02T02:30:16.349Z,65.6
2017-12-02T02:30:29.305Z,65.6
2017-12-02T02:30:42.305Z,65.6
2017-12-02T02:30:59.192Z,65.7
2017-12-02T02:31:15.340Z,65.7
2017-12-02T02:31:27.532Z,65.6
2017-12-02T02:31:42.886Z,65.6
2017-12-02T02:31:55.025Z,65.4
2017-12-02T02:32:06.386Z,65.6
2017-12-02T02:32:23.323Z,65.7
2017-12-02T02:32:35.457Z,65.1
2017-12-02T02:32:46.803Z,65.6
2017-12-02T02:33:02.188Z,65.6
2017-12-02T02:33:14.311Z,65.6
2017-12-02T02:33:29.676Z,65.7
2017-12-02T02:33:45.827Z,66
2017-12-02T02:34:02.010Z,65.6
2017-12-02T02:34:18.222Z,65.7
2017-12-02T02:34:30.250Z,65.6
2017-12-02T02:34:45.754Z,65.6
2017-12-02T02:35:02.791Z,65.8
2017-12-02T02:35:19.532Z,65.6
2017-12-02T02:35:31.679Z,65.7
2017-12-02T02:35:43.042Z,65.6
2017-12-02T02:35:58.445Z,65.6
2017-12-02T02:36:10.537Z,65.7
2017-12-02T02:36:27.565Z,65.7
2017-12-02T02:36:39.711Z,65.7
2017-12-02T02:36:56.644Z,65.9
2017-12-02T02:37:12.765Z,66
2017-12-02T02:37:24.925Z,65.7
2017-12-02T02:37:40.240Z,65.9
2017-12-02T02:37:52.432Z,65.9
2017-12-02T02:38:13.437Z,66
2017-12-02T02:38:31.449Z,66
2017-12-02T02:38:53.661Z,65.9
2017-12-02T02:39:09.313Z,66
2017-12-02T02:39:25.204Z,65.8
2017-12-02T02:39:41.601Z,66.4
2017-12-02T02:39:53.549Z,66.6
2017-12-02T02:40:10.447Z,66.6
2017-12-02T02:40:26.701Z,66.4
2017-12-02T02:40:42.743Z,66.3
2017-12-02T02:40:58.913Z,66
2017-12-02T02:41:15.083Z,66.2
2017-12-02T02:41:31.233Z,66.3
2017-12-02T02:41:47.398Z,66.4
2017-12-02T02:42:29.437Z,66
2017-12-02T02:42:47.117Z,66.3
2017-12-02T02:42:59.336Z,65.9
2017-12-02T02:43:12.317Z,65.7
2017-12-02T02:43:29.215Z,65.7
2017-12-02T02:43:41.344Z,66
2017-12-02T02:43:54.350Z,66
2017-12-02T02:44:07.206Z,66
2017-12-02T02:44:32.280Z,65.6
2017-12-02T02:44:49.724Z,66.2
2017-12-02T02:45:02.200Z,65.9
2017-12-02T02:45:15.220Z,65.9
2017-12-02T02:45:27.994Z,65.9
2017-12-02T02:45:40.923Z,65.8
2017-12-02T02:45:53.932Z,65.9
2017-12-02T02:46:10.851Z,65.8
2017-12-02T02:46:35.994Z,65.8
2017-12-02T02:46:48.738Z,65.9
2017-12-02T02:47:05.704Z,65.9
2017-12-02T02:47:17.864Z,65.9
2017-12-02T02:47:34.786Z,65.8
2017-12-02T02:47:46.960Z,65.8
2017-12-02T02:47:59.890Z,65.7
2017-12-02T02:48:11.241Z,65.9
2017-12-02T02:48:22.548Z,65.8
2017-12-02T02:48:37.973Z,65.7
2017-12-02T02:48:54.184Z,66
2017-12-02T02:49:06.309Z,65.9
2017-12-02T02:49:19.303Z,65.7
2017-12-02T02:49:32.205Z,65.6
2017-12-02T02:49:45.116Z,65.9
2017-12-02T02:49:58.086Z,66.1
2017-12-02T02:50:15.021Z,65.7
2017-12-02T02:50:31.218Z,65.7
2017-12-02T02:50:43.346Z,65.6
2017-12-02T02:50:56.317Z,66
2017-12-02T02:51:07.626Z,65.6
2017-12-02T02:51:23.146Z,66.1
2017-12-02T02:51:39.195Z,65.9
2017-12-02T02:51:51.387Z,65.7
2017-12-02T02:52:10.228Z,65.7
2017-12-02T02:52:22.045Z,65.6
2017-12-02T02:52:38.953Z,66
2017-12-02T02:52:55.079Z,65.6
2017-12-02T02:53:07.196Z,65.8
2017-12-02T02:53:22.615Z,65.7
2017-12-02T02:53:38.773Z,65.7
2017-12-02T02:53:50.947Z,65.7
2017-12-02T02:54:07.858Z,66.1
2017-12-02T02:54:24.008Z,65.7
2017-12-02T02:54:40.167Z,65.7
2017-12-02T02:54:56.417Z,65.6
2017-12-02T02:55:15.180Z,65.6
2017-12-02T02:55:30.753Z,65.6
2017-12-02T02:56:13.588Z,65.6
2017-12-02T02:56:36.063Z,65.6
2017-12-02T02:57:08.340Z,65.6
2017-12-02T02:57:20.482Z,65.7
2017-12-02T02:57:33.423Z,65.9
2017-12-02T02:57:44.763Z,66
2017-12-02T02:58:37.078Z,65.9
2017-12-02T02:58:49.274Z,66
2017-12-02T02:59:06.169Z,65.9
2017-12-02T02:59:46.337Z,65.7
2017-12-02T02:59:58.516Z,65.6
2017-12-02T03:00:15.435Z,65.7
2017-12-02T03:00:31.533Z,65.7
2017-12-02T03:00:43.736Z,65.5
2017-12-02T03:00:56.678Z,65.2
2017-12-02T03:01:13.593Z,65.5
2017-12-02T03:01:25.741Z,65.4
2017-12-02T03:01:41.133Z,65.7
2017-12-02T03:01:57.333Z,65.7
2017-12-02T03:02:14.422Z,65.4
2017-12-02T03:02:27.185Z,65.3
2017-12-02T03:02:38.564Z,65.5
2017-12-02T03:02:49.900Z,65.5
2017-12-02T03:03:01.284Z,65.5
2017-12-02T03:03:14.186Z,65.5
2017-12-02T03:03:29.534Z,65.4
2017-12-02T03:03:41.719Z,65.5
2017-12-02T03:03:57.159Z,65.5
2017-12-02T03:04:54.440Z,65.5
2017-12-02T03:05:11.311Z,65.3
2017-12-02T03:05:27.544Z,65.5
2017-12-02T03:05:39.714Z,65.3
2017-12-02T03:05:52.668Z,65.2
2017-12-02T03:06:05.657Z,65.1
2017-12-02T03:06:18.490Z,65.7
2017-12-02T03:06:31.579Z,65.2
2017-12-02T03:06:48.604Z,65.4
2017-12-02T03:07:00.611Z,65.6
2017-12-02T03:07:13.549Z,65.5
2017-12-02T03:07:26.536Z,65.3
2017-12-02T03:07:39.432Z,65.5
2017-12-02T03:08:25.256Z,65.5
2017-12-02T03:08:41.391Z,65.5
2017-12-02T03:08:56.667Z,65.3
2017-12-02T03:09:12.142Z,65.6
2017-12-02T03:09:24.369Z,65.4
2017-12-02T03:09:37.361Z,65.3
2017-12-02T03:10:06.312Z,65.5
2017-12-02T03:10:19.268Z,65.6
2017-12-02T03:10:32.195Z,65.6
2017-12-02T03:10:45.155Z,65.3
2017-12-02T03:10:59.682Z,65.5
2017-12-02T03:11:16.654Z,65.5
2017-12-02T03:11:28.798Z,65.3
2017-12-02T03:11:41.736Z,65.3
2017-12-02T03:11:54.704Z,65.3
2017-12-02T03:12:07.685Z,65.2
2017-12-02T03:12:21.225Z,65.4
2017-12-02T03:12:37.544Z,65.5
2017-12-02T03:12:50.731Z,65.5
2017-12-02T03:13:02.639Z,65.5
2017-12-02T03:13:44.487Z,65.4
2017-12-02T03:13:59.880Z,65.5
2017-12-02T03:14:15.999Z,65.6
2017-12-02T03:14:32.339Z,65.5
2017-12-02T03:14:48.330Z,65.5
2017-12-02T03:15:04.488Z,65.6
2017-12-02T03:15:20.674Z,65
2017-12-02T03:15:36.825Z,65.4
2017-12-02T03:15:52.988Z,65.2
2017-12-02T03:16:09.112Z,65.5
2017-12-02T03:16:25.282Z,65.3
2017-12-02T03:16:41.413Z,65.6
2017-12-02T03:16:57.599Z,65.6
2017-12-02T03:17:13.696Z,65.6
2017-12-02T03:17:29.875Z,65.4
2017-12-02T03:17:46.087Z,65.4
2017-12-02T03:17:58.206Z,65.5
2017-12-02T03:18:15.169Z,65.2
2017-12-02T03:18:27.278Z,65.1
2017-12-02T03:18:42.632Z,65.4
2017-12-02T03:18:58.724Z,65.3
2017-12-02T03:19:14.940Z,65.3
2017-12-02T03:19:31.064Z,65.7
2017-12-02T03:19:47.227Z,65.5
2017-12-02T03:19:59.335Z,65.7
2017-12-02T03:20:10.778Z,66
2017-12-02T03:20:23.700Z,65.6
2017-12-02T03:20:40.589Z,65.7
2017-12-02T03:20:56.792Z,65.6
2017-12-02T03:21:12.954Z,65.9
2017-12-02T03:21:29.107Z,65.7
2017-12-02T03:21:45.385Z,65.7
2017-12-02T03:22:01.396Z,65.7
2017-12-02T03:22:17.544Z,65.7
2017-12-02T03:22:33.719Z,65.9
2017-12-02T03:22:49.946Z,65.9
2017-12-02T03:23:06.057Z,65.9
2017-12-02T03:23:22.226Z,65.9
2017-12-02T03:23:34.364Z,65.9
2017-12-02T03:23:51.258Z,65.9
2017-12-02T03:24:07.466Z,65.7
2017-12-02T03:24:23.622Z,65.9
2017-12-02T03:24:39.717Z,65.6
2017-12-02T03:24:55.896Z,65.9
2017-12-02T03:25:08.066Z,65.6
2017-12-02T03:25:25.008Z,65.7
2017-12-02T03:25:41.143Z,65.6
2017-12-02T03:25:57.348Z,65.2
2017-12-02T03:26:13.526Z,65.6
2017-12-02T03:26:29.640Z,65.3
2017-12-02T03:26:55.721Z,65.5
2017-12-02T03:27:11.504Z,65
2017-12-02T03:27:47.250Z,65.4
2017-12-02T03:28:02.995Z,65.6
2017-12-02T03:28:19.199Z,65.4
2017-12-02T03:28:35.317Z,65.4
2017-12-02T03:28:51.530Z,65.2
2017-12-02T03:29:03.675Z,65.5
2017-12-02T03:29:20.576Z,65.4
2017-12-02T03:29:32.739Z,65.5
2017-12-02T03:29:49.723Z,65.4
2017-12-02T03:30:01.830Z,65.4
2017-12-02T03:30:17.251Z,65.3
2017-12-02T03:30:33.327Z,65.4
2017-12-02T03:30:49.488Z,65.4
2017-12-02T03:31:05.633Z,65.5
2017-12-02T03:31:22.846Z,65.3
2017-12-02T03:31:35.572Z,65.3
2017-12-02T03:31:48.519Z,65.4
2017-12-02T03:31:59.905Z,65.4
2017-12-02T03:32:12.863Z,65.2
2017-12-02T03:32:29.831Z,65.5
2017-12-02T03:32:41.951Z,65.6
2017-12-02T03:32:58.928Z,65.2
2017-12-02T03:33:11.012Z,65.2
2017-12-02T03:33:26.402Z,65.5
2017-12-02T03:33:42.521Z,65.4
2017-12-02T03:33:58.730Z,65.3
2017-12-02T03:34:10.829Z,65.3
2017-12-02T03:34:27.739Z,65.2
2017-12-02T03:34:43.925Z,65.4
2017-12-02T03:34:56.147Z,65.2
2017-12-02T03:35:13.062Z,65.2
2017-12-02T03:36:05.467Z,65.5
2017-12-02T03:36:42.435Z,65.5
2017-12-02T03:36:53.813Z,65.4
2017-12-02T03:37:08.808Z,65.5
2017-12-02T03:37:22.091Z,65.5
2017-12-02T03:37:38.313Z,65.1
2017-12-02T03:37:50.429Z,65.4
2017-12-02T03:38:05.792Z,65.3
2017-12-02T03:38:21.945Z,65.3
2017-12-02T03:38:38.126Z,65.2
2017-12-02T03:38:54.284Z,65.3
2017-12-02T03:39:06.494Z,65.5
2017-12-02T03:39:19.377Z,65.1